Time;durP1;ratioP1;P1;durP2;ratioP2;P2;SDS_P1;SDS_P2;PMS_P1;PMS_P2;Temp;Humidity;BMP_temperature;BMP_pressure;BME280_temperature;BME280_humidity;BME280_pressure;Samples;Min_cycle;Max_cycle;Signal;HPM_P1;HPM_P2
2021/05/03 00:00:41;;;;;;;3.07;2.20;;;;;;;5.20;82.73;101200.31;5092762;28;20032;-71
2021/05/03 00:03:09;;;;;;;16.30;2.92;;;;;;;5.14;81.39;101192.81;5074851;28;20036;-71
2021/05/03 00:05:34;;;;;;;12.02;2.58;;;;;;;5.25;81.76;101204.28;5058096;28;20051;-71
2021/05/03 00:08:00;;;;;;;7.70;2.17;;;;;;;5.26;82.46;101195.34;5092236;28;20031;-70
2021/05/03 00:10:25;;;;;;;13.27;3.83;;;;;;;5.26;81.76;101198.00;5092342;28;20039;-71
2021/05/03 00:12:50;;;;;;;12.83;3.60;;;;;;;5.30;81.83;101198.63;5092243;28;20040;-71
2021/05/03 00:15:16;;;;;;;7.77;2.33;;;;;;;5.25;81.69;101195.50;5092496;28;20461;-70
2021/05/03 00:17:41;;;;;;;8.10;3.10;;;;;;;5.21;81.60;101196.69;5074402;28;20028;-71
2021/05/03 00:20:08;;;;;;;11.40;3.07;;;;;;;5.20;81.78;101195.84;5074711;28;20047;-71
2021/05/03 00:22:33;;;;;;;;;;;;;;;5.24;81.99;101188.50;5074974;28;20028;-71
2021/05/03 00:24:58;;;;;;;;;;;;;;;5.21;82.18;101194.03;5092838;28;20406;-71
2021/05/03 00:27:24;;;;;;;11.80;2.60;;;;;;;5.24;81.62;101193.78;5074186;28;19955;-71
2021/05/03 00:29:49;;;;;;;7.53;2.27;;;;;;;5.21;81.78;101191.38;5074311;28;20028;-71
2021/05/03 00:32:15;;;;;;;9.97;2.93;;;;;;;5.24;81.88;101189.38;5074332;28;20483;-71
2021/05/03 00:34:40;;;;;;;8.47;2.73;;;;;;;5.16;81.57;101188.25;5092129;28;20119;-70
2021/05/03 00:37:05;;;;;;;9.60;3.10;;;;;;;5.21;81.68;101194.88;5092133;28;20356;-71
2021/05/03 00:39:31;;;;;;;9.70;2.90;;;;;;;5.26;82.51;101194.53;5057198;28;20369;-71
2021/05/03 00:41:56;;;;;;;7.27;3.30;;;;;;;5.26;81.10;101192.72;5074120;28;20075;-71
2021/05/03 00:44:24;;;;;;;12.57;2.77;;;;;;;5.28;80.36;101198.72;5091159;28;20027;-71
2021/05/03 00:46:49;;;;;;;10.55;3.00;;;;;;;5.26;80.72;101194.53;5074156;28;20063;-71
2021/05/03 00:49:15;;;;;;;10.43;3.00;;;;;;;5.30;80.80;101201.28;5091605;28;20375;-71
2021/05/03 00:51:40;;;;;;;9.80;2.53;;;;;;;5.36;81.62;101192.88;5074001;28;20366;-71
2021/05/03 00:54:06;;;;;;;11.50;2.50;;;;;;;5.34;81.65;101200.09;5091724;28;20119;-71
2021/05/03 00:56:31;;;;;;;8.10;2.50;;;;;;;5.33;81.74;101200.19;5073827;28;20036;-71
2021/05/03 00:58:57;;;;;;;8.77;2.23;;;;;;;5.32;81.51;101191.41;5091465;28;20031;-71
2021/05/03 01:01:22;;;;;;;4.97;2.67;;;;;;;5.26;81.82;101197.16;5091599;28;20560;-71
2021/05/03 01:03:48;;;;;;;9.97;2.60;;;;;;;5.29;81.30;101197.78;5073947;28;20043;-71
2021/05/03 01:06:17;;;;;;;5.00;1.70;;;;;;;5.27;80.73;101194.41;5091581;28;20465;-71
2021/05/03 01:08:43;;;;;;;8.95;2.45;;;;;;;5.35;80.37;101201.75;5091125;28;20031;-71
2021/05/03 01:11:08;;;;;;;8.03;2.40;;;;;;;5.21;80.62;101199.31;5091174;28;20054;-71
2021/05/03 01:13:33;;;;;;;3.30;2.70;;;;;;;5.21;79.83;101192.22;5073582;28;20048;-71
2021/05/03 01:15:59;;;;;;;7.70;1.87;;;;;;;5.21;79.58;101196.69;5091550;28;20128;-71
2021/05/03 01:18:26;;;;;;;7.73;2.60;;;;;;;5.16;81.07;101198.84;5091028;28;20039;-71
2021/05/03 01:20:57;;;;;;;5.05;2.70;;;;;;;5.12;81.02;101200.84;5091342;28;20039;-71
2021/05/03 01:23:23;;;;;;;5.00;1.85;;;;;;;5.06;80.73;101202.19;5091188;28;20035;-71
2021/05/03 01:25:49;;;;;;;9.55;3.13;;;;;;;5.03;80.65;101201.56;5073398;28;20097;-71
2021/05/03 01:28:15;;;;;;;5.65;2.63;;;;;;;5.01;81.13;101206.97;5073159;28;20057;-71
2021/05/03 01:30:42;;;;;;;7.83;2.13;;;;;;;4.99;81.02;101205.41;5073590;28;20496;-71
2021/05/03 01:33:10;;;;;;;7.95;3.13;;;;;;;4.99;82.15;101206.25;5091293;28;20043;-71
2021/05/03 01:35:36;;;;;;;5.63;2.50;;;;;;;5.02;82.96;101205.16;5073530;28;20031;-70
2021/05/03 01:38:03;;;;;;;;;;;;;;;4.94;84.16;101212.81;5091450;28;20091;-70
2021/05/03 01:40:30;;;;;;;6.93;2.45;;;;;;;4.85;83.79;101203.78;5073322;28;19969;-70
2021/05/03 01:42:56;;;;;;;7.65;2.10;;;;;;;4.89;84.44;101202.59;5091220;28;20036;-71
2021/05/03 01:45:24;;;;;;;5.78;2.10;;;;;;;4.76;84.54;101196.53;5091246;28;20449;-71
2021/05/03 01:47:51;;;;;;;4.22;2.03;;;;;;;4.69;84.32;101203.25;5073217;28;20071;-71
2021/05/03 01:50:19;;;;;;;5.40;2.15;;;;;;;4.65;84.84;101211.38;5091194;28;20360;-71
2021/05/03 01:52:45;;;;;;;5.28;2.22;;;;;;;4.67;85.31;101208.63;5090849;28;20044;-71
2021/05/03 01:55:12;;;;;;;5.10;3.03;;;;;;;4.62;84.66;101214.25;5091319;28;20043;-70
2021/05/03 01:57:37;;;;;;;8.57;2.80;;;;;;;4.73;84.89;101202.03;5077011;28;20182;-71
2021/05/03 02:00:05;;;;;;;5.20;2.80;;;;;;;4.59;85.12;101218.94;5077363;28;20118;-71
2021/05/03 02:02:31;;;;;;;7.40;2.47;;;;;;;4.63;86.21;101213.28;5095182;28;20295;-71
2021/05/03 02:04:56;;;;;;;6.60;2.87;;;;;;;4.72;86.74;101214.41;5095110;28;20065;-71
2021/05/03 02:07:21;;;;;;;5.13;3.13;;;;;;;4.73;86.92;101216.13;5077100;28;20047;-70
2021/05/03 02:09:47;;;;;;;8.40;3.97;;;;;;;4.67;86.59;101211.28;5076899;28;20101;-70
2021/05/03 02:12:12;;;;;;;7.60;3.47;;;;;;;4.74;86.89;101209.03;5094861;28;20090;-70
2021/05/03 02:14:43;;;;;;;12.37;4.30;;;;;;;4.71;87.41;101219.84;5094829;28;20120;-70
2021/05/03 02:17:09;;;;;;;12.70;4.30;;;;;;;4.68;86.60;101212.94;5094958;28;20665;-70
2021/05/03 02:19:35;;;;;;;7.40;3.67;;;;;;;4.67;86.92;101210.44;5094588;28;20040;-70
2021/05/03 02:22:00;;;;;;;10.10;3.72;;;;;;;4.60;87.31;101221.47;5094624;28;20107;-71
2021/05/03 02:24:26;;;;;;;10.93;3.72;;;;;;;4.67;87.29;101219.22;5060237;28;20475;-71
2021/05/03 02:26:51;;;;;;;7.70;3.20;;;;;;;4.60;87.25;101226.75;5076913;28;20498;-71
2021/05/03 02:29:16;;;;;;;13.70;4.00;;;;;;;4.61;86.99;101223.16;5076506;28;20107;-71
2021/05/03 02:31:42;;;;;;;12.33;5.17;;;;;;;4.62;87.17;101231.94;5076678;28;20492;-71
2021/05/03 02:34:07;;;;;;;9.33;4.13;;;;;;;4.60;87.65;101226.75;5076627;28;20036;-71
2021/05/03 02:36:32;;;;;;;13.03;4.30;;;;;;;4.64;87.38;101227.38;5076347;28;20067;-71
2021/05/03 02:38:58;;;;;;;7.87;3.50;;;;;;;4.65;87.67;101223.75;5094219;28;20079;-71
2021/05/03 02:41:23;;;;;;;7.70;3.87;;;;;;;4.70;87.75;101221.63;5094378;28;20036;-71
2021/05/03 02:43:49;;;;;;;13.30;4.17;;;;;;;4.67;87.39;101218.38;5059816;28;20040;-72
2021/05/03 02:46:14;;;;;;;9.03;3.20;;;;;;;4.69;87.28;101227.03;5094290;28;20066;-71
2021/05/03 02:48:39;;;;;;;7.43;3.90;;;;;;;4.74;87.36;101216.97;5093988;28;20097;-72
2021/05/03 02:51:05;;;;;;;9.07;2.67;;;;;;;4.68;86.32;101225.34;5059458;28;20024;-71
2021/05/03 02:53:30;;;;;;;7.60;3.20;;;;;;;4.72;85.45;101225.00;5094143;28;20453;-72
2021/05/03 02:55:56;;;;;;;14.87;2.80;;;;;;;4.75;85.32;101223.94;5076280;28;20027;-72
2021/05/03 02:58:21;;;;;;;14.03;3.20;;;;;;;4.78;85.09;101232.50;5075920;28;20035;-72
2021/05/03 03:00:46;;;;;;;5.57;2.60;;;;;;;4.77;85.06;101227.31;5094094;28;20419;-72
2021/05/03 03:03:12;;;;;;;7.73;2.83;;;;;;;4.75;85.38;101210.72;5094047;28;20421;-72
2021/05/03 03:05:37;;;;;;;8.30;3.83;;;;;;;4.77;85.30;101211.44;5076076;28;20043;-72
2021/05/03 03:08:04;;;;;;;9.70;3.73;;;;;;;4.79;84.70;101238.63;5092681;28;20065;-72
2021/05/03 03:10:30;;;;;;;4.75;2.90;;;;;;;4.89;84.45;101229.03;5093750;28;20040;-72
2021/05/03 03:12:56;;;;;;;6.50;2.53;;;;;;;4.83;83.95;101232.16;5093750;28;20035;-72
2021/05/03 03:15:23;;;;;;;11.32;3.42;;;;;;;4.79;84.26;101236.81;5093761;28;20457;-72
2021/05/03 03:17:50;;;;;;;9.07;3.05;;;;;;;4.86;83.60;101237.22;5093397;28;20131;-72
2021/05/03 03:20:17;;;;;;;11.05;3.47;;;;;;;4.82;84.49;101230.47;5075658;28;20047;-72
2021/05/03 03:22:43;;;;;;;6.75;2.83;;;;;;;4.81;84.28;101228.78;5075849;28;20036;-72
2021/05/03 03:25:08;;;;;;;9.02;2.40;;;;;;;4.82;83.94;101230.47;5075748;28;20140;-72
2021/05/03 03:27:35;;;;;;;4.83;2.30;;;;;;;4.86;84.26;101242.50;5093350;28;20040;-72
2021/05/03 03:30:01;;;;;;;6.57;2.58;;;;;;;4.83;83.79;101237.44;5093427;28;20523;-72
2021/05/03 03:32:27;;;;;;;6.87;3.07;;;;;;;4.88;84.13;101237.13;5075736;28;20103;-72
2021/05/03 03:34:52;;;;;;;10.93;3.75;;;;;;;4.85;83.28;101244.31;5075364;28;20078;-72
2021/05/03 03:37:17;;;;;;;4.37;2.23;;;;;;;4.78;84.07;101242.25;5093312;28;20112;-72
2021/05/03 03:39:43;;;;;;;6.53;2.77;;;;;;;4.78;83.26;101245.72;5093078;28;20134;-72
2021/05/03 03:42:09;;;;;;;5.93;2.45;;;;;;;4.82;82.59;101246.31;5093234;28;20032;-72
2021/05/03 03:44:34;;;;;;;3.80;2.28;;;;;;;4.83;82.54;101242.75;5075324;28;20126;-72
2021/05/03 03:47:00;;;;;;;6.30;2.47;;;;;;;4.85;83.11;101248.78;5093107;28;20464;-72
2021/05/03 03:49:25;;;;;;;6.75;2.50;;;;;;;4.79;82.75;101254.50;5074965;28;20412;-72
2021/05/03 03:51:50;;;;;;;7.00;3.43;;;;;;;4.85;82.67;101256.72;5092891;28;20075;-72
2021/05/03 03:54:17;;;;;;;7.70;2.27;;;;;;;4.81;82.10;101261.38;5092918;28;20031;-72
2021/05/03 03:56:43;;;;;;;6.07;2.20;;;;;;;4.79;82.21;101259.78;5092877;28;20040;-72
2021/05/03 03:59:10;;;;;;;6.03;2.08;;;;;;;4.83;82.97;101256.81;5074808;28;20054;-72
2021/05/03 04:01:37;;;;;;;7.53;2.88;;;;;;;4.86;82.74;101255.75;5074963;28;20066;-72
2021/05/03 04:04:03;;;;;;;;;;;;;;;4.83;82.50;101254.16;5075304;28;20360;-72
2021/05/03 04:06:41;;;;;;;5.03;2.28;;;;;;;4.89;82.54;101268.72;5092697;28;20014;-72
2021/05/03 04:09:58;;;;;;;7.93;2.67;;;;;;;4.88;82.26;101271.50;5092412;28;20380;-72
2021/05/03 04:25:51;;;;;;;3.42;2.30;;;;;;;4.89;81.12;101274.03;5049894;28;20044;-72
2021/05/03 04:28:16;;;;;;;7.28;2.15;;;;;;;4.85;80.63;101275.22;5091927;28;20040;-72
2021/05/03 04:30:41;;;;;;;10.23;2.43;;;;;;;4.93;81.26;101280.78;5057576;28;20032;-72
2021/05/03 04:33:07;;;;;;;6.40;3.30;;;;;;;4.91;80.36;101269.47;5074371;28;20361;-72
2021/05/03 04:35:32;;;;;;;5.17;2.77;;;;;;;4.97;81.09;101286.72;5074370;28;20542;-72
2021/05/03 04:37:57;;;;;;;5.80;1.80;;;;;;;4.99;79.73;101284.81;5074065;28;20811;-72
2021/05/03 04:40:23;;;;;;;3.37;2.00;;;;;;;5.06;79.94;101286.03;5092201;28;20462;-72
2021/05/03 04:42:48;;;;;;;7.27;2.43;;;;;;;5.14;80.79;101288.09;5074273;28;20039;-72
2021/05/03 04:45:15;;;;;;;4.43;1.93;;;;;;;5.14;80.13;101282.81;5074280;28;20044;-72
2021/05/03 04:47:42;;;;;;;11.70;2.42;;;;;;;5.21;79.00;101290.16;5073915;28;20028;-64
2021/05/03 04:50:09;;;;;;;11.18;2.47;;;;;;;5.28;79.52;101293.22;5091857;28;20035;-64
2021/05/03 04:52:34;;;;;;;11.40;2.13;;;;;;;5.28;78.89;101287.91;5074025;28;20457;-64
2021/05/03 04:55:00;;;;;;;4.85;2.30;;;;;;;5.26;79.22;101285.38;5091849;28;20032;-64
2021/05/03 04:57:26;;;;;;;8.40;2.50;;;;;;;5.19;77.91;101291.25;5091732;28;20097;-64
2021/05/03 04:59:51;;;;;;;5.65;2.03;;;;;;;5.25;78.39;101291.63;5057069;28;20046;-64
2021/05/03 05:02:16;;;;;;;2.97;1.60;;;;;;;5.18;78.42;101295.69;5091624;28;20038;-64
2021/05/03 05:04:41;;;;;;;5.07;1.50;;;;;;;5.38;78.23;101296.00;5091702;28;20059;-64
2021/05/03 05:07:07;;;;;;;3.23;1.60;;;;;;;5.62;76.97;101298.59;5073870;28;20064;-64
2021/05/03 05:09:32;;;;;;;8.47;1.97;;;;;;;5.66;77.42;101303.53;5091359;28;20093;-64
2021/05/03 05:11:58;;;;;;;7.33;1.70;;;;;;;5.56;75.69;101305.22;5091438;28;20089;-64
2021/05/03 05:14:23;;;;;;;7.20;2.33;;;;;;;5.57;76.28;101308.69;5057027;28;20055;-64
2021/05/03 05:16:49;;;;;;;8.53;2.27;;;;;;;5.66;74.40;101298.25;5056925;28;20036;-64
2021/05/03 05:19:15;;;;;;;4.57;1.48;;;;;;;6.29;74.00;101311.13;5073419;28;20465;-64
2021/05/03 05:21:41;;;;;;;7.00;2.10;;;;;;;6.51;71.12;101305.81;5091502;28;20047;-64
2021/05/03 05:24:07;;;;;;;4.38;1.88;;;;;;;6.66;71.90;101300.25;5073670;28;20044;-64
2021/05/03 05:26:32;;;;;;;7.63;2.20;;;;;;;7.62;69.25;101304.69;5091487;28;20024;-64
2021/05/03 05:28:58;;;;;;;6.93;2.00;;;;;;;7.86;65.91;101312.41;5073272;28;20084;-64
2021/05/03 05:31:23;;;;;;;5.50;1.50;;;;;;;7.54;66.83;101318.66;5073158;28;20401;-64
2021/05/03 05:33:48;;;;;;;7.00;1.50;;;;;;;7.81;67.65;101314.63;5090968;28;20047;-64
2021/05/03 05:36:14;;;;;;;4.37;1.10;;;;;;;8.03;66.87;101309.16;5091388;28;20032;-64
2021/05/03 05:38:39;;;;;;;5.47;1.37;;;;;;;8.71;63.69;101313.06;5090990;28;20070;-64
2021/05/03 05:41:05;;;;;;;1.63;1.20;;;;;;;9.13;62.60;101321.69;5073495;28;20032;-64
2021/05/03 05:43:31;;;;;;;7.72;2.00;;;;;;;8.80;62.75;101322.88;5091147;28;20036;-64
2021/05/03 05:45:57;;;;;;;6.47;1.05;;;;;;;8.63;61.92;101327.06;5073430;28;20043;-64
2021/05/03 05:48:22;;;;;;;2.38;0.98;;;;;;;8.85;61.78;101321.53;5072964;28;20036;-64
2021/05/03 05:50:48;;;;;;;0.87;0.83;;;;;;;9.80;60.23;101321.78;5073328;28;20054;-64
2021/05/03 05:53:14;;;;;;;9.90;1.65;;;;;;;9.96;58.29;101318.53;5073275;28;20111;-64
2021/05/03 05:55:40;;;;;;;6.78;1.13;;;;;;;9.57;59.77;101316.75;5073366;28;20450;-64
2021/05/03 05:58:07;;;;;;;4.22;1.83;;;;;;;9.24;60.88;101332.19;5090733;28;20141;-64
2021/05/03 06:00:33;;;;;;;2.75;1.10;;;;;;;8.55;61.80;101324.25;5091133;28;20168;-64
2021/05/03 06:02:59;;;;;;;6.32;1.27;;;;;;;8.49;64.42;101330.09;5072557;28;20039;-64
2021/05/03 06:05:24;;;;;;;2.95;1.15;;;;;;;8.72;62.86;101326.25;5089412;28;20043;-64
2021/05/03 06:07:51;;;;;;;5.40;1.33;;;;;;;9.67;58.17;101322.13;5071151;28;20041;-64
2021/05/03 06:10:17;;;;;;;2.75;0.95;;;;;;;9.44;59.71;101337.56;5071283;28;20040;-64
2021/05/03 06:12:42;;;;;;;2.33;1.05;;;;;;;8.33;61.68;101331.38;5089184;28;20452;-64
2021/05/03 06:15:08;;;;;;;7.33;1.63;;;;;;;7.87;62.57;101340.69;5071479;28;20044;-64
2021/05/03 06:17:33;;;;;;;6.00;1.77;;;;;;;7.76;66.08;101335.44;5089140;28;20261;-64
2021/05/03 06:19:59;;;;;;;1.77;1.00;;;;;;;8.04;63.18;101342.75;5072727;28;20079;-67
2021/05/03 06:22:25;;;;;;;2.90;1.10;;;;;;;8.52;61.27;101348.44;5073021;28;20353;-64
2021/05/03 06:24:50;;;;;;;5.25;1.30;;;;;;;9.03;61.03;101336.81;5073048;28;20377;-64
2021/05/03 06:27:16;;;;;;;8.23;1.27;;;;;;;9.39;60.42;101353.09;5072825;28;20047;-64
2021/05/03 06:29:41;;;;;;;2.90;1.13;;;;;;;9.01;60.19;101330.78;5072626;28;20036;-64
2021/05/03 06:32:07;;;;;;;7.07;2.00;;;;;;;8.60;60.46;101344.16;5090595;28;20079;-64
2021/05/03 06:34:32;;;;;;;3.20;0.90;;;;;;;8.75;60.05;101341.94;5073111;28;20023;-64
2021/05/03 06:36:59;;;;;;;3.97;1.47;;;;;;;9.48;58.94;101352.25;5090849;28;20698;-64
2021/05/03 06:39:25;;;;;;;2.70;0.90;;;;;;;10.04;57.76;101353.31;5072740;28;20096;-64
2021/05/03 06:41:50;;;;;;;1.48;1.35;;;;;;;9.30;57.65;101346.81;5090772;28;20369;-64
2021/05/03 06:44:16;;;;;;;4.80;1.00;;;;;;;9.55;59.37;101356.03;5094127;28;20039;-64
2021/05/03 06:46:42;;;;;;;4.25;1.05;;;;;;;9.20;59.81;101353.94;5076444;28;20043;-64
2021/05/03 06:49:07;;;;;;;6.65;1.40;;;;;;;9.56;59.60;101359.56;5059469;28;20119;-64
2021/05/03 06:51:33;;;;;;;2.53;1.23;;;;;;;9.27;58.21;101349.72;5094167;28;20063;-64
2021/05/03 06:53:58;;;;;;;3.43;1.10;;;;;;;8.73;59.72;101354.53;5094130;28;20388;-64
2021/05/03 06:56:24;;;;;;;4.73;1.10;;;;;;;8.70;60.68;101353.97;5094197;28;20369;-64
2021/05/03 06:58:50;;;;;;;3.50;1.17;;;;;;;9.15;59.09;101341.03;5075851;28;20043;-64
2021/05/03 07:01:15;;;;;;;3.47;1.00;;;;;;;8.15;59.92;101349.81;5076116;28;20032;-64
2021/05/03 07:03:42;;;;;;;1.07;0.93;;;;;;;7.85;60.96;101350.59;5059585;28;20445;-64
2021/05/03 07:06:08;;;;;;;1.35;0.80;;;;;;;8.24;60.71;101345.50;5076022;28;20814;-64
2021/05/03 07:08:33;;;;;;;2.77;1.10;;;;;;;8.05;61.32;101346.22;5075873;28;20032;-64
2021/05/03 07:11:01;;;;;;;4.27;1.20;;;;;;;7.78;61.28;101346.78;5093689;28;20028;-64
2021/05/03 07:13:27;;;;;;;5.63;1.33;;;;;;;8.36;61.28;101355.09;5059255;28;20089;-64
2021/05/03 07:15:52;;;;;;;3.97;1.57;;;;;;;8.55;60.42;101350.84;5093696;28;20035;-64
2021/05/03 07:18:17;;;;;;;1.67;0.83;;;;;;;8.26;59.29;101346.19;5093447;28;20046;-64
2021/05/03 07:20:43;;;;;;;4.37;1.23;;;;;;;9.34;55.83;101342.88;5076044;28;20039;-64
2021/05/03 07:23:09;;;;;;;4.87;1.40;;;;;;;8.65;57.57;101354.38;5093618;28;20469;-64
2021/05/03 07:25:35;;;;;;;4.00;1.33;;;;;;;8.58;58.76;101356.75;5093597;28;20048;-64
2021/05/03 07:28:00;;;;;;;1.00;0.90;;;;;;;8.73;56.87;101354.53;5075438;28;20123;-66
2021/05/03 07:30:25;;;;;;;2.00;0.70;;;;;;;9.05;56.87;101343.69;5075636;28;20043;-65
2021/05/03 07:32:51;;;;;;;4.03;0.83;;;;;;;9.01;57.52;101344.09;5075488;28;20086;-64
2021/05/03 07:35:16;;;;;;;3.50;0.73;;;;;;;8.64;59.20;101350.06;5075563;28;20638;-64
2021/05/03 07:37:42;;;;;;;2.47;0.80;;;;;;;8.08;61.60;101348.66;5075160;28;20028;-64
2021/05/03 07:40:08;;;;;;;7.13;1.17;;;;;;;7.85;62.43;101353.25;5093309;28;20028;-64
2021/05/03 07:42:34;;;;;;;;;;;;;;;7.96;60.09;101352.34;5075718;28;20038;-66
2021/05/03 07:44:59;;;;;;;9.65;1.30;;;;;;;8.21;61.77;101348.41;5093091;28;19908;-64
2021/05/03 07:47:26;;;;;;;2.27;1.13;;;;;;;9.17;59.91;101338.22;5075071;28;20055;-64
2021/05/03 07:49:51;;;;;;;;;;;;;;;9.03;57.40;101337.66;5075676;28;20060;-64
2021/05/03 07:52:16;;;;;;;4.22;1.10;;;;;;;8.25;59.51;101340.03;5092965;28;20345;-64
2021/05/03 07:54:42;;;;;;;3.60;0.90;;;;;;;8.86;56.03;101341.00;5058172;28;20036;-64
2021/05/03 07:57:07;;;;;;;1.07;0.67;;;;;;;8.81;55.93;101337.91;5058450;28;20471;-64
2021/05/03 07:59:32;;;;;;;3.37;0.80;;;;;;;9.45;53.71;101336.56;5074729;28;20047;-64
2021/05/03 08:01:58;;;;;;;4.10;1.47;;;;;;;9.36;55.60;101337.41;5075210;28;20143;-64
2021/05/03 08:04:23;;;;;;;6.77;0.70;;;;;;;9.00;56.65;101335.28;5092532;28;20039;-64
2021/05/03 08:06:51;;;;;;;0.73;0.65;;;;;;;8.79;55.82;101346.00;5074853;28;20485;-64
2021/05/03 08:09:17;;;;;;;1.00;0.70;;;;;;;9.46;54.57;101343.59;5092378;28;20365;-64
2021/05/03 08:11:45;;;;;;;1.07;0.97;;;;;;;10.24;52.72;101340.78;5074571;28;20032;-64
2021/05/03 08:14:15;;;;;;;2.13;0.80;;;;;;;10.77;51.67;101335.66;5091512;28;20040;-64
2021/05/03 08:16:41;;;;;;;3.22;0.57;;;;;;;10.90;50.31;101337.94;5074693;28;20039;-64
2021/05/03 08:19:06;;;;;;;4.28;0.88;;;;;;;10.77;50.33;101341.00;5074333;28;20028;-64
2021/05/03 08:21:32;;;;;;;1.43;0.80;;;;;;;11.19;49.38;101342.25;5074657;28;20459;-64
2021/05/03 08:23:57;;;;;;;2.73;0.83;;;;;;;10.81;49.40;101344.19;5074601;28;20428;-64
2021/05/03 08:26:23;;;;;;;4.30;0.60;;;;;;;10.58;50.57;101343.75;5074691;28;20051;-64
2021/05/03 08:28:49;;;;;;;0.80;0.70;;;;;;;11.59;50.27;101340.97;5074120;28;20036;-64
2021/05/03 08:31:14;;;;;;;1.92;0.65;;;;;;;11.14;46.84;101341.88;5057778;28;20044;-64
2021/05/03 08:33:40;;;;;;;0.73;0.57;;;;;;;11.36;49.76;101341.44;5074443;28;20472;-64
2021/05/03 08:36:05;;;;;;;2.43;1.00;;;;;;;11.86;49.91;101341.81;5092284;28;20211;-64
2021/05/03 08:38:31;;;;;;;2.80;0.93;;;;;;;12.27;48.40;101347.44;5073964;28;20028;-64
2021/05/03 08:40:58;;;;;;;2.30;0.70;;;;;;;12.77;46.71;101344.00;5074366;28;20090;-64
2021/05/03 08:43:26;;;;;;;3.45;0.77;;;;;;;13.00;45.51;101339.72;5073839;28;20044;-64
2021/05/03 08:45:52;;;;;;;2.13;0.63;;;;;;;13.30;43.21;101337.47;5092099;28;20817;-64
2021/05/03 08:48:21;;;;;;;2.47;0.67;;;;;;;13.26;44.62;101336.09;5073770;28;20481;-64
2021/05/03 08:51:13;;;;;;;0.98;0.82;;;;;;;12.61;42.25;101344.78;5074217;28;20124;-64
2021/05/03 08:53:44;;;;;;;2.30;0.93;;;;;;;12.50;44.42;101348.56;5091753;28;20044;-65
2021/05/03 08:56:10;;;;;;;1.70;0.70;;;;;;;11.99;47.16;101347.66;5092090;28;20360;-70
2021/05/03 08:58:39;;;;;;;2.72;0.60;;;;;;;13.06;46.26;101338.22;5091469;28;20487;-70
2021/05/03 09:01:06;;;;;;;1.70;0.70;;;;;;;13.68;45.76;101337.81;5074115;28;20046;-70
2021/05/03 09:03:33;;;;;;;;;;;;;;;13.70;46.11;101341.19;5074334;28;20350;-70
2021/05/03 09:06:04;;;;;;;3.20;0.90;;;;;;;14.40;44.27;101331.63;5090999;28;19912;-70
2021/05/03 09:08:30;;;;;;;1.30;0.70;;;;;;;14.47;40.21;101338.84;5073477;28;20036;-70
2021/05/03 09:10:56;;;;;;;1.08;0.50;;;;;;;14.55;40.27;101328.06;5056977;28;20024;-70
2021/05/03 09:13:34;;;;;;;2.55;0.57;;;;;;;14.72;39.48;101325.31;5091650;28;20933;-70
2021/05/03 09:16:14;;;;;;;1.85;1.23;;;;;;;15.04;38.58;101326.97;5073867;28;20131;-70
2021/05/03 09:18:40;;;;;;;0.88;0.60;;;;;;;14.17;40.19;101321.63;5073377;28;20040;-71
2021/05/03 09:21:15;;;;;;;0.90;0.70;;;;;;;14.92;41.49;101325.72;5073839;28;20036;-70
2021/05/03 09:24:02;;;;;;;3.38;0.50;;;;;;;13.61;39.84;101326.91;5073697;28;20066;-71
2021/05/03 09:26:53;;;;;;;2.50;0.70;;;;;;;13.41;42.29;101323.72;5091377;28;20047;-71
2021/05/03 09:29:30;;;;;;;4.93;1.40;;;;;;;12.76;41.46;101328.94;5090986;28;20100;-71
2021/05/03 09:32:00;;;;;;;2.45;0.70;;;;;;;12.43;45.88;101320.75;5091276;28;20173;-71
2021/05/03 09:34:37;;;;;;;1.63;0.68;;;;;;;11.47;46.51;101328.81;5073498;28;20078;-71
2021/05/03 09:37:27;;;;;;;2.40;1.30;;;;;;;12.70;45.89;101327.75;5091173;28;20472;-70
2021/05/03 09:39:54;;;;;;;2.70;0.70;;;;;;;12.54;44.62;101325.00;5091149;28;20405;-71
2021/05/03 09:42:20;;;;;;;1.80;0.60;;;;;;;12.53;45.43;101321.50;5073560;28;20361;-71
2021/05/03 09:45:09;;;;;;;2.88;1.15;;;;;;;12.65;45.93;101317.50;5073314;28;20040;-71
2021/05/03 09:47:36;;;;;;;2.33;0.70;;;;;;;13.08;43.40;101320.97;5072767;28;20048;-71
2021/05/03 09:50:04;;;;;;;1.00;0.90;;;;;;;14.14;42.36;101321.97;5073134;28;20124;-71
2021/05/03 09:52:29;;;;;;;4.75;0.90;;;;;;;13.86;44.12;101319.69;5090987;28;20028;-71
2021/05/03 09:54:54;;;;;;;1.17;0.80;;;;;;;12.30;47.50;101323.06;5091061;28;20113;-71
2021/05/03 09:57:20;;;;;;;1.60;0.70;;;;;;;12.66;44.62;101313.81;5090986;28;20032;-71
2021/05/03 09:59:50;;;;;;;0.93;0.70;;;;;;;12.13;48.15;101322.16;5072929;28;20032;-71
2021/05/03 10:02:28;;;;;;;4.30;1.00;;;;;;;11.54;47.35;101317.38;5073132;28;20032;-71
2021/05/03 10:07:35;;;;;;;4.05;0.82;;;;;;;11.35;46.78;101306.81;5090692;28;20070;-71
2021/05/03 10:10:12;;;;;;;1.85;0.90;;;;;;;11.41;47.15;101308.88;5090873;28;20043;-71
2021/05/03 10:12:37;;;;;;;2.40;0.85;;;;;;;11.03;49.36;101310.00;5056273;28;20051;-71
2021/05/03 10:15:09;;;;;;;2.22;1.00;;;;;;;10.78;49.53;101315.13;5090760;28;20039;-71
2021/05/03 10:17:37;;;;;;;1.83;0.77;;;;;;;10.07;49.86;101302.38;5093022;28;20399;-71
2021/05/03 10:20:04;;;;;;;2.63;0.90;;;;;;;9.86;51.36;101303.41;5076956;28;20044;-71
2021/05/03 10:22:29;;;;;;;2.08;1.00;;;;;;;9.53;54.11;101304.72;5094538;28;20032;-71
2021/05/03 10:25:03;;;;;;;2.40;0.93;;;;;;;9.49;53.84;101303.31;5094727;28;20043;-71
2021/05/03 10:27:30;;;;;;;1.42;0.85;;;;;;;9.40;52.23;101299.66;5076599;28;20040;-71
2021/05/03 10:30:12;;;;;;;3.55;1.10;;;;;;;9.84;54.48;101301.88;5094565;28;20101;-71
2021/05/03 10:32:39;;;;;;;4.40;1.20;;;;;;;9.85;55.00;101309.69;5094445;28;20165;-71
2021/05/03 10:35:05;;;;;;;;;;;;;;;10.22;54.60;101308.06;5060385;28;20117;-71
2021/05/03 10:37:34;;;;;;;4.10;1.48;;;;;;;11.29;54.26;101300.25;5076155;28;19999;-71
2021/05/03 10:40:28;;;;;;;1.13;0.98;;;;;;;11.50;52.93;101301.78;5094169;28;20044;-71
2021/05/03 10:43:03;;;;;;;2.85;1.30;;;;;;;10.26;56.22;101304.94;5059311;28;20032;-64
2021/05/03 10:51:28;;;;;;;1.30;1.20;;;;;;;12.08;52.35;101298.53;5062789;28;20441;-64
2021/05/03 10:53:54;;;;;;;3.00;1.40;;;;;;;12.52;50.11;101298.38;5076291;28;20039;-64
2021/05/03 10:56:40;;;;;;;1.10;1.00;;;;;;;12.14;51.74;101311.25;5094007;28;20365;-64
2021/05/03 10:59:08;;;;;;;3.45;1.10;;;;;;;11.85;51.06;101306.22;5059197;28;20358;-64
2021/05/03 11:01:52;;;;;;;2.78;1.13;;;;;;;12.46;50.98;101299.03;5093925;28;20024;-64
2021/05/03 11:04:30;;;;;;;2.70;1.40;;;;;;;12.83;48.91;101306.69;5094068;28;20043;-64
2021/05/03 11:06:55;;;;;;;2.80;1.38;;;;;;;11.38;51.08;101295.84;5093802;28;20040;-64
2021/05/03 11:12:02;;;;;;;2.05;1.85;;;;;;;10.39;54.59;101301.13;5093646;28;20079;-64
2021/05/03 11:14:31;;;;;;;2.60;1.63;;;;;;;10.50;53.73;101299.09;5059238;28;20440;-64
2021/05/03 11:17:17;;;;;;;1.38;1.27;;;;;;;12.13;50.55;101292.69;5093658;28;20420;-64
2021/05/03 11:22:19;;;;;;;4.18;1.20;;;;;;;12.84;47.93;101291.44;5093613;28;20368;-64
2021/05/03 11:25:01;;;;;;;2.00;1.05;;;;;;;13.03;46.93;101299.19;5075697;28;20055;-64
2021/05/03 11:27:41;;;;;;;1.20;0.90;;;;;;;13.87;45.16;101291.00;5075570;28;20036;-64
2021/05/03 11:30:12;;;;;;;1.20;0.95;;;;;;;14.88;44.58;101292.13;5092994;28;20048;-64
2021/05/03 11:32:38;;;;;;;3.78;1.20;;;;;;;15.20;43.21;101299.16;5093445;28;20126;-65
2021/05/03 11:35:25;;;;;;;2.63;1.45;;;;;;;14.71;42.96;101296.78;5075704;28;20150;-65
2021/05/03 11:38:31;;;;;;;2.10;1.00;;;;;;;14.88;43.12;101292.13;5093043;28;20350;-65
2021/05/03 11:46:10;;;;;;;2.50;1.38;;;;;;;14.46;44.09;101294.16;5075282;28;20044;-65
2021/05/03 11:48:36;;;;;;;2.55;1.30;;;;;;;15.80;43.81;101286.69;5074191;28;20043;-64
2021/05/03 11:51:07;;;;;;;4.55;1.98;;;;;;;15.22;42.63;101277.44;5092755;28;20119;-65
2021/05/03 11:53:36;;;;;;;2.95;1.95;;;;;;;14.58;44.08;101286.56;5075080;28;20073;-65
2021/05/03 11:56:37;;;;;;;1.65;1.27;;;;;;;13.13;46.09;101299.03;5075081;28;20059;-65
2021/05/03 11:59:02;;;;;;;1.75;1.38;;;;;;;12.72;48.58;101298.13;5010267;28;20046;-65
2021/05/03 12:01:29;;;;;;;1.63;1.43;;;;;;;11.70;51.66;101303.25;5075762;28;20049;-65
2021/05/03 12:03:57;;;;;;;3.00;1.70;;;;;;;9.97;54.26;101318.38;5074995;28;20113;-65
2021/05/03 12:06:37;;;;;;;3.17;1.65;;;;;;;10.82;54.50;101303.16;5074914;28;20054;-64